createdAt,value
2018-02-08T00:00:09.425Z,50.67
2018-02-08T00:02:35.608Z,52.85
2018-02-08T00:05:02.544Z,58.00
2018-02-08T00:07:28.712Z,49.92
2018-02-08T00:09:54.946Z,58.28
2018-02-08T00:12:21.901Z,55.75
2018-02-08T00:14:48.851Z,58.03
2018-02-08T00:17:15.954Z,56.13
2018-02-08T00:19:42.912Z,46.47
2018-02-08T00:22:09.062Z,46.55
2018-02-08T00:24:35.339Z,47.05
2018-02-08T00:27:02.267Z,50.65
2018-02-08T00:29:28.464Z,46.92
2018-02-08T00:31:54.723Z,47.92
2018-02-08T00:34:20.909Z,47.17
2018-02-08T00:36:47.085Z,49.03
2018-02-08T00:39:13.319Z,52.90
2018-02-08T00:41:39.535Z,49.28
2018-02-08T00:44:05.720Z,47.15
2018-02-08T00:46:32.664Z,45.33
2018-02-08T00:49:03.076Z,45.05
2018-02-08T00:51:31.104Z,46.13
2018-02-08T00:53:57.284Z,46.37
2018-02-08T00:56:24.249Z,46.63
2018-02-08T00:58:50.423Z,46.35
2018-02-08T01:01:16.667Z,44.25
2018-02-08T01:03:42.856Z,45.33
2018-02-08T01:06:09.033Z,47.75
2018-02-08T01:08:35.238Z,52.10
2018-02-08T01:11:02.161Z,41.08
2018-02-08T01:13:28.328Z,51.33
2018-02-08T01:15:54.523Z,48.38
2018-02-08T01:18:20.732Z,47.95
2018-02-08T01:20:46.944Z,47.40
2018-02-08T01:23:13.156Z,52.30
2018-02-08T01:25:39.359Z,47.00
2018-02-08T01:28:05.562Z,48.20
2018-02-08T01:30:31.772Z,52.47
2018-02-08T01:32:57.948Z,49.88
2018-02-08T01:35:24.167Z,49.60
2018-02-08T01:37:50.376Z,50.15
2018-02-08T01:40:16.547Z,46.85
2018-02-08T01:42:42.769Z,47.80
2018-02-08T01:45:08.997Z,45.20
2018-02-08T01:47:35.160Z,50.80
2018-02-08T01:50:02.935Z,48.47
2018-02-08T01:52:30.278Z,56.75
2018-02-08T01:54:56.467Z,46.65
2018-02-08T01:57:22.643Z,40.97
2018-02-08T01:59:48.848Z,43.17
2018-02-08T02:02:15.055Z,46.15
2018-02-08T02:04:41.244Z,50.75
2018-02-08T02:07:07.544Z,46.47
2018-02-08T02:09:33.731Z,42.25
2018-02-08T02:11:59.950Z,48.65
2018-02-08T02:14:26.172Z,55.63
2018-02-08T02:16:52.408Z,53.25
2018-02-08T02:19:18.652Z,52.33
2018-02-08T02:21:44.829Z,43.25
2018-02-08T02:24:11.004Z,53.58
2018-02-08T02:26:38.017Z,46.70
2018-02-08T02:29:04.220Z,48.72
2018-02-08T02:31:30.388Z,49.22
2018-02-08T02:33:57.279Z,55.15
2018-02-08T02:36:23.476Z,45.88
2018-02-08T02:38:50.373Z,48.70
2018-02-08T02:41:16.550Z,45.30
2018-02-08T02:43:43.485Z,52.38
2018-02-08T02:46:10.401Z,55.78
2018-02-08T02:48:36.599Z,46.63
2018-02-08T02:51:03.624Z,54.28
2018-02-08T02:53:29.836Z,49.33
2018-02-08T02:55:56.790Z,45.63
2018-02-08T02:58:23.827Z,55.95
2018-02-08T03:00:50.026Z,50.55
2018-02-08T03:03:16.203Z,47.35
2018-02-08T03:05:42.392Z,48.28
2018-02-08T03:08:09.304Z,47.40
2018-02-08T03:10:35.478Z,37.97
2018-02-08T03:13:01.671Z,46.42
2018-02-08T03:15:28.663Z,47.15
2018-02-08T03:17:54.831Z,46.50
2018-02-08T03:20:21.089Z,42.05
2018-02-08T03:22:47.288Z,44.85
2018-02-08T03:25:13.504Z,43.15
2018-02-08T03:27:39.679Z,42.95
2018-02-08T03:30:05.924Z,53.53
2018-02-08T03:32:32.091Z,47.75
2018-02-08T03:34:59.060Z,49.13
2018-02-08T03:37:25.232Z,45.85
2018-02-08T03:39:51.411Z,45.67
2018-02-08T03:42:17.601Z,42.47
2018-02-08T03:44:43.785Z,46.25
2018-02-08T03:47:09.972Z,53.15
2018-02-08T03:49:36.154Z,49.10
2018-02-08T03:52:03.183Z,47.83
2018-02-08T03:54:29.606Z,43.30
2018-02-08T03:56:55.783Z,45.60
2018-02-08T03:59:21.946Z,54.20
2018-02-08T04:01:48.118Z,45.38
2018-02-08T04:04:14.292Z,42.33
2018-02-08T04:06:40.487Z,46.05
2018-02-08T04:09:06.666Z,45.10
2018-02-08T04:11:32.871Z,43.70
2018-02-08T04:13:59.044Z,45.40
2018-02-08T04:16:25.238Z,48.53
2018-02-08T04:18:51.448Z,42.45
2018-02-08T04:21:17.636Z,39.28
2018-02-08T04:23:43.836Z,42.40
2018-02-08T04:26:10.253Z,43.45
2018-02-08T04:28:38.252Z,41.72
2018-02-08T04:31:04.842Z,47.72
2018-02-08T04:33:31.040Z,39.80
2018-02-08T04:35:57.236Z,38.75
2018-02-08T04:38:35.816Z,40.35
2018-02-08T04:41:14.448Z,45.85
2018-02-08T04:43:53.000Z,45.17
2018-02-08T04:49:25.479Z,40.28
2018-02-08T04:51:51.636Z,45.72
2018-02-08T04:54:18.627Z,42.50
2018-02-08T04:56:44.988Z,41.17
2018-02-08T04:59:11.142Z,35.45
2018-02-08T05:01:37.326Z,41.35
2018-02-08T05:04:03.492Z,42.40
2018-02-08T05:06:29.667Z,48.22
2018-02-08T05:08:56.004Z,40.38
2018-02-08T05:11:22.223Z,43.67
2018-02-08T05:13:49.127Z,42.08
2018-02-08T05:16:15.306Z,40.90
2018-02-08T05:18:41.495Z,38.83
2018-02-08T05:21:07.723Z,44.33
2018-02-08T05:23:34.688Z,41.65
2018-02-08T05:26:00.880Z,43.55
2018-02-08T05:28:27.067Z,39.15
2018-02-08T05:30:53.215Z,46.83
2018-02-08T05:33:20.156Z,45.10
2018-02-08T05:35:47.075Z,42.70
2018-02-08T05:38:13.243Z,44.50
2018-02-08T05:40:39.419Z,50.72
2018-02-08T05:43:05.575Z,44.88
2018-02-08T05:45:31.733Z,37.75
2018-02-08T05:47:57.920Z,42.70
2018-02-08T05:50:24.096Z,43.40
2018-02-08T05:52:50.279Z,40.65
2018-02-08T05:55:16.537Z,43.97
2018-02-08T05:57:42.728Z,44.40
2018-02-08T06:00:09.680Z,46.47
2018-02-08T06:02:36.613Z,43.63
2018-02-08T06:05:03.556Z,52.33
2018-02-08T06:07:29.732Z,47.00
2018-02-08T06:09:55.903Z,45.45
2018-02-08T06:12:22.084Z,40.85
2018-02-08T06:14:49.012Z,36.10
2018-02-08T06:17:15.230Z,38.58
2018-02-08T06:19:41.383Z,45.08
2018-02-08T06:22:07.611Z,54.40
2018-02-08T06:24:34.595Z,49.42
2018-02-08T06:27:00.776Z,52.40
2018-02-08T06:29:26.930Z,42.95
2018-02-08T06:31:53.120Z,45.12
2018-02-08T06:34:19.315Z,43.10
2018-02-08T06:36:46.258Z,44.47
2018-02-08T06:41:39.768Z,47.72
2018-02-08T06:44:05.935Z,47.58
2018-02-08T06:46:32.101Z,38.03
2018-02-08T06:48:58.264Z,36.42
2018-02-08T06:51:25.188Z,41.92
2018-02-08T06:53:51.377Z,39.78
2018-02-08T06:56:17.668Z,40.50
2018-02-08T06:58:44.093Z,44.17
2018-02-08T07:01:10.284Z,44.97
2018-02-08T07:03:39.540Z,40.05
2018-02-08T07:06:08.843Z,45.75
2018-02-08T07:08:35.032Z,41.97
2018-02-08T07:11:01.231Z,40.20
2018-02-08T07:13:28.151Z,42.58
2018-02-08T07:15:54.338Z,51.58
2018-02-08T07:18:20.527Z,45.80
2018-02-08T07:20:46.687Z,45.25
2018-02-08T07:23:19.964Z,45.20
2018-02-08T07:25:46.261Z,47.67
2018-02-08T07:28:12.432Z,43.90
2018-02-08T07:30:39.345Z,44.40
2018-02-08T07:33:05.581Z,47.53
2018-02-08T07:35:32.582Z,47.65
2018-02-08T07:37:58.745Z,49.20
2018-02-08T07:40:24.955Z,46.53
2018-02-08T07:42:51.182Z,42.05
2018-02-08T07:45:17.413Z,51.75
2018-02-08T07:47:44.326Z,46.35
2018-02-08T07:50:10.483Z,43.72
2018-02-08T07:52:36.833Z,52.53
2018-02-08T07:55:03.047Z,51.37
2018-02-08T07:57:29.271Z,49.35
2018-02-08T07:59:55.648Z,48.40
2018-02-08T08:02:22.563Z,43.92
2018-02-08T08:04:51.855Z,63.38
2018-02-08T08:07:19.574Z,47.92
2018-02-08T08:09:45.772Z,40.63
2018-02-08T08:12:11.925Z,45.10
2018-02-08T08:14:38.121Z,57.72
2018-02-08T08:17:04.298Z,55.55
2018-02-08T08:19:30.491Z,52.08
2018-02-08T08:21:56.656Z,44.90
2018-02-08T08:24:22.840Z,48.08
2018-02-08T08:26:48.994Z,59.60
2018-02-08T08:29:15.140Z,56.58
2018-02-08T08:31:41.385Z,54.92
2018-02-08T08:34:07.556Z,60.45
2018-02-08T08:36:33.844Z,56.17
2018-02-08T08:39:00.091Z,51.75
2018-02-08T08:41:26.259Z,44.53
2018-02-08T08:43:52.444Z,48.60
2018-02-08T08:46:18.678Z,46.10
2018-02-08T08:48:44.912Z,44.85
2018-02-08T08:51:11.168Z,45.58
2018-02-08T08:53:37.355Z,40.83
2018-02-08T08:56:03.511Z,39.60
2018-02-08T08:58:29.808Z,51.72
2018-02-08T09:00:56.216Z,51.33
2018-02-08T09:03:23.132Z,40.83
2018-02-08T09:05:49.327Z,46.53
2018-02-08T09:08:15.564Z,50.80
2018-02-08T09:10:41.724Z,46.07
2018-02-08T09:13:07.896Z,41.83
2018-02-08T09:15:34.828Z,47.80
2018-02-08T09:18:00.996Z,44.17
2018-02-08T09:20:27.924Z,50.30
2018-02-08T09:22:54.120Z,47.87
2018-02-08T09:25:20.329Z,50.00
2018-02-08T09:27:46.523Z,55.80
2018-02-08T09:30:12.764Z,44.07
2018-02-08T09:32:38.988Z,50.07
2018-02-08T09:35:05.163Z,46.17
2018-02-08T09:37:31.358Z,44.70
2018-02-08T09:39:57.531Z,47.87
2018-02-08T09:42:23.707Z,46.97
2018-02-08T09:44:49.936Z,53.97
2018-02-08T09:47:16.113Z,46.57
2018-02-08T09:49:43.017Z,49.87
2018-02-08T09:52:09.220Z,46.93
2018-02-08T09:54:35.388Z,48.73
2018-02-08T09:57:01.612Z,49.53
2018-02-08T09:59:27.953Z,46.20
2018-02-08T10:01:54.312Z,49.33
2018-02-08T10:04:20.520Z,42.70
2018-02-08T10:06:47.431Z,48.00
2018-02-08T10:09:13.572Z,52.03
2018-02-08T10:11:40.483Z,48.00
2018-02-08T10:14:06.670Z,55.03
2018-02-08T10:16:32.855Z,45.67
2018-02-08T10:18:59.755Z,45.37
2018-02-08T10:21:25.951Z,43.70
2018-02-08T10:23:52.152Z,46.50
2018-02-08T10:26:18.301Z,42.00
2018-02-08T10:28:45.207Z,43.90
2018-02-08T10:31:11.363Z,46.63
2018-02-08T10:33:37.524Z,47.60
2018-02-08T10:36:03.804Z,43.27
2018-02-08T10:38:29.908Z,51.20
2018-02-08T10:40:56.817Z,50.47
2018-02-08T10:43:22.992Z,50.07
2018-02-08T10:45:49.891Z,54.63
2018-02-08T10:48:16.042Z,51.20
2018-02-08T10:50:42.976Z,54.20
2018-02-08T10:53:09.128Z,47.17
2018-02-08T10:55:35.288Z,49.37
2018-02-08T10:58:02.291Z,53.87
2018-02-08T11:00:28.585Z,47.90
2018-02-08T11:02:54.797Z,46.40
2018-02-08T11:05:20.959Z,52.07
2018-02-08T11:07:47.860Z,62.87
2018-02-08T11:10:14.052Z,52.33
2018-02-08T11:12:40.257Z,54.63
2018-02-08T11:15:06.493Z,59.00
2018-02-08T11:17:32.687Z,56.83
2018-02-08T11:19:58.872Z,51.57
2018-02-08T11:22:25.798Z,49.63
2018-02-08T11:24:51.951Z,53.97
2018-02-08T11:27:18.871Z,50.72
2018-02-08T11:29:45.782Z,56.70
2018-02-08T11:32:11.948Z,59.75
2018-02-08T11:34:38.144Z,56.78
2018-02-08T11:37:04.287Z,51.80
2018-02-08T11:39:30.428Z,51.37
2018-02-08T11:41:57.323Z,60.20
2018-02-08T11:44:23.481Z,53.45
2018-02-08T11:46:50.430Z,59.25
2018-02-08T11:49:16.596Z,60.50
2018-02-08T11:51:42.743Z,58.45
2018-02-08T11:54:08.892Z,63.42
2018-02-08T11:56:35.859Z,61.65
2018-02-08T11:59:02.779Z,55.63
2018-02-08T12:01:29.160Z,55.33
2018-02-08T12:03:55.583Z,67.13
2018-02-08T12:06:21.759Z,55.90
2018-02-08T12:08:47.932Z,63.40
2018-02-08T12:11:14.083Z,61.80
2018-02-08T12:13:40.215Z,58.93
2018-02-08T12:16:06.391Z,63.07
2018-02-08T12:18:32.552Z,53.27
2018-02-08T12:20:58.687Z,52.73
2018-02-08T12:23:25.605Z,64.47
2018-02-08T12:25:51.784Z,72.83
2018-02-08T12:28:18.024Z,56.17
2018-02-08T12:30:44.218Z,60.23
2018-02-08T12:33:10.392Z,50.53
2018-02-08T12:35:36.590Z,63.33
2018-02-08T12:38:02.767Z,57.43
2018-02-08T12:40:28.965Z,56.93
2018-02-08T12:42:55.100Z,61.47
2018-02-08T12:45:21.243Z,58.57
2018-02-08T12:47:47.434Z,63.30
2018-02-08T12:50:14.347Z,47.53
2018-02-08T12:52:40.491Z,59.63
2018-02-08T12:55:06.669Z,54.13
2018-02-08T12:57:32.819Z,56.93
2018-02-08T12:59:58.979Z,64.17
2018-02-08T13:02:26.696Z,58.47
2018-02-08T13:04:52.907Z,57.03
2018-02-08T13:07:19.801Z,60.17
2018-02-08T13:09:45.952Z,59.23
2018-02-08T13:12:12.097Z,55.63
2018-02-08T13:14:38.259Z,69.93
2018-02-08T13:17:05.171Z,56.67
2018-02-08T13:19:31.343Z,65.43
2018-02-08T13:21:57.496Z,63.43
2018-02-08T13:24:23.652Z,58.87
2018-02-08T13:26:49.828Z,68.10
2018-02-08T13:29:15.988Z,54.70
2018-02-08T13:31:42.166Z,54.70
2018-02-08T13:34:08.400Z,58.03
2018-02-08T13:36:34.580Z,58.40
2018-02-08T13:39:00.804Z,57.42
2018-02-08T13:41:27.708Z,69.10
2018-02-08T13:43:53.923Z,57.83
2018-02-08T13:46:20.131Z,59.63
2018-02-08T13:48:47.046Z,58.33
2018-02-08T13:54:30.308Z,56.72
2018-02-08T14:00:04.151Z,56.00
2018-02-08T14:02:30.676Z,61.70
2018-02-08T14:04:56.956Z,59.35
2018-02-08T14:07:23.104Z,54.80
2018-02-08T14:09:49.266Z,60.25
2018-02-08T14:12:15.427Z,65.22
2018-02-08T14:14:41.615Z,75.12
2018-02-08T14:17:08.521Z,56.65
2018-02-08T14:19:34.667Z,51.57
2018-02-08T14:22:00.863Z,65.65
2018-02-08T14:24:27.073Z,62.65
2018-02-08T14:26:53.986Z,68.68
2018-02-08T14:29:20.136Z,66.05
2018-02-08T14:31:46.298Z,57.17
2018-02-08T14:34:12.523Z,57.85
2018-02-08T14:36:39.420Z,62.25
2018-02-08T14:39:05.620Z,68.15
2018-02-08T14:41:31.875Z,63.05
2018-02-08T14:43:57.979Z,70.65
2018-02-08T14:46:24.874Z,72.18
2018-02-08T14:48:54.295Z,74.62
2018-02-08T14:51:20.752Z,74.05
2018-02-08T14:53:46.932Z,73.72
2018-02-08T14:56:13.090Z,67.40
2018-02-08T14:58:39.254Z,79.60
2018-02-08T15:01:05.421Z,78.75
2018-02-08T15:03:31.736Z,83.30
2018-02-08T15:05:58.180Z,78.53
2018-02-08T15:08:24.368Z,75.45
2018-02-08T15:10:50.523Z,84.43
2018-02-08T15:13:16.679Z,83.47
2018-02-08T15:15:43.609Z,81.30
2018-02-08T15:18:10.543Z,78.85
2018-02-08T15:20:36.690Z,82.70
2018-02-08T15:23:04.342Z,86.65
2018-02-08T15:25:30.489Z,87.80
2018-02-08T15:27:56.655Z,96.75
2018-02-08T15:30:22.843Z,97.03
2018-02-08T15:32:48.995Z,96.07
2018-02-08T15:35:15.187Z,95.53
2018-02-08T15:37:41.364Z,97.53
2018-02-08T15:40:07.522Z,91.57
2018-02-08T15:42:34.421Z,94.45
2018-02-08T15:45:00.601Z,97.53
2018-02-08T15:47:26.814Z,88.12
2018-02-08T15:49:52.980Z,114.00
2018-02-08T15:52:19.170Z,116.30
2018-02-08T15:54:45.348Z,93.57
2018-02-08T15:57:11.503Z,104.07
2018-02-08T15:59:37.669Z,98.62
2018-02-08T16:02:03.892Z,100.87
2018-02-08T16:04:30.175Z,121.32
2018-02-08T16:06:57.288Z,112.45
2018-02-08T16:09:24.223Z,113.57
2018-02-08T16:11:50.384Z,103.97
2018-02-08T16:14:16.569Z,102.32
2018-02-08T16:16:43.455Z,152.38
2018-02-08T16:19:09.607Z,139.10
2018-02-08T16:21:35.770Z,107.75
2018-02-08T16:24:02.667Z,99.45
2018-02-08T16:26:28.807Z,95.95
2018-02-08T16:28:54.983Z,109.37
2018-02-08T16:31:21.146Z,107.03
2018-02-08T16:33:47.338Z,112.60
2018-02-08T16:36:13.544Z,102.80
2018-02-08T16:38:39.703Z,108.07
2018-02-08T16:41:05.886Z,105.12
2018-02-08T16:43:32.052Z,125.25
2018-02-08T16:45:58.207Z,104.28
2018-02-08T16:48:24.385Z,105.43
2018-02-08T16:50:50.548Z,103.65
2018-02-08T16:53:16.724Z,97.93
2018-02-08T16:55:42.936Z,107.97
2018-02-08T16:58:09.840Z,101.78
2018-02-08T17:00:36.006Z,104.38
2018-02-08T17:03:02.160Z,107.90
2018-02-08T17:05:29.353Z,107.12
2018-02-08T17:07:55.715Z,111.25
2018-02-08T17:10:21.865Z,119.87
2018-02-08T17:12:48.779Z,103.15
2018-02-08T17:15:14.931Z,112.25
2018-02-08T17:17:41.115Z,106.32
2018-02-08T17:20:07.284Z,113.88
2018-02-08T17:22:33.420Z,106.93
2018-02-08T17:24:59.571Z,101.35
2018-02-08T17:27:25.737Z,118.47
2018-02-08T17:29:52.628Z,110.07
2018-02-08T17:32:18.772Z,112.85
2018-02-08T17:34:44.935Z,105.03
2018-02-08T17:37:11.828Z,117.95
2018-02-08T17:39:38.030Z,109.20
2018-02-08T17:42:04.936Z,111.12
2018-02-08T17:44:31.090Z,126.45
2018-02-08T17:46:57.303Z,110.47
2018-02-08T17:49:23.504Z,107.53
2018-02-08T17:51:49.671Z,119.37
2018-02-08T17:54:15.928Z,115.25
2018-02-08T17:56:42.147Z,111.57
2018-02-08T17:59:08.382Z,119.60
2018-02-08T18:01:34.555Z,109.40
2018-02-08T18:04:00.761Z,107.30
2018-02-08T18:06:27.009Z,119.90
2018-02-08T18:08:53.415Z,101.35
2018-02-08T18:11:19.582Z,113.68
2018-02-08T18:13:45.759Z,109.55
2018-02-08T18:16:11.907Z,106.37
2018-02-08T18:18:38.088Z,130.68
2018-02-08T18:21:04.367Z,118.65
2018-02-08T18:23:31.363Z,101.90
2018-02-08T18:26:01.242Z,115.43
2018-02-08T18:28:27.371Z,120.72
2018-02-08T18:30:53.508Z,106.12
2018-02-08T18:33:19.684Z,108.82
2018-02-08T18:35:45.831Z,105.55
2018-02-08T18:40:34.011Z,126.15
2018-02-08T18:43:00.103Z,99.85
2018-02-08T18:45:26.295Z,106.57
2018-02-08T18:47:52.463Z,106.68
2018-02-08T18:50:18.631Z,110.30
2018-02-08T18:52:45.531Z,109.63
2018-02-08T18:55:11.708Z,117.22
2018-02-08T18:57:37.884Z,105.60
2018-02-08T19:00:04.040Z,103.20
2018-02-08T19:02:30.196Z,104.32
2018-02-08T19:04:56.359Z,109.65
2018-02-08T19:07:23.329Z,111.95
2018-02-08T19:09:49.703Z,109.60
2018-02-08T19:12:15.871Z,117.55
2018-02-08T19:14:42.007Z,115.82
2018-02-08T19:17:08.904Z,131.27
2018-02-08T19:19:35.060Z,199.50
2018-02-08T19:22:01.216Z,166.93
2018-02-08T19:24:27.423Z,138.37
2018-02-08T19:26:53.567Z,126.75
2018-02-08T19:29:19.723Z,122.47
2018-02-08T19:31:46.623Z,119.95
2018-02-08T19:34:12.784Z,129.30
2018-02-08T19:36:39.012Z,125.57
2018-02-08T19:39:05.175Z,115.88
2018-02-08T19:41:32.064Z,120.78
2018-02-08T19:43:58.236Z,132.63
2018-02-08T19:46:24.395Z,237.70
2018-02-08T19:48:51.291Z,267.42
2018-02-08T19:51:17.456Z,188.43
2018-02-08T19:53:43.660Z,136.30
2018-02-08T19:56:09.843Z,125.60
2018-02-08T19:58:36.728Z,122.70
2018-02-08T20:01:02.918Z,138.95
2018-02-08T20:03:29.820Z,134.98
2018-02-08T20:05:56.018Z,135.40
2018-02-08T20:08:22.484Z,140.52
2018-02-08T20:10:48.699Z,150.98
2018-02-08T20:13:15.633Z,138.82
2018-02-08T20:15:42.583Z,149.25
2018-02-08T20:18:09.487Z,156.50
2018-02-08T20:20:35.652Z,143.35
2018-02-08T20:23:01.840Z,144.18
2018-02-08T20:25:36.944Z,145.18
2018-02-08T20:28:03.132Z,138.65
2018-02-08T20:30:30.091Z,157.35
2018-02-08T20:32:56.668Z,122.30
2018-02-08T20:35:23.671Z,129.60
2018-02-08T20:37:49.830Z,133.37
2018-02-08T20:40:20.823Z,122.75
2018-02-08T20:42:52.991Z,125.93
2018-02-08T20:45:19.140Z,136.07
2018-02-08T20:47:45.328Z,131.87
2018-02-08T20:50:12.252Z,129.85
2018-02-08T20:52:38.423Z,143.55
2018-02-08T20:55:04.598Z,147.80
2018-02-08T20:57:30.768Z,132.52
2018-02-08T20:59:57.816Z,197.43
2018-02-08T21:02:24.423Z,141.20
2018-02-08T21:04:50.607Z,121.68
2018-02-08T21:07:17.511Z,139.93
2018-02-08T21:09:43.735Z,133.35
2018-02-08T21:12:10.123Z,135.15
2018-02-08T21:14:37.773Z,128.45
2018-02-08T21:17:03.939Z,126.18
2018-02-08T21:19:30.847Z,125.35
2018-02-08T21:21:57.767Z,130.95
2018-02-08T21:24:23.920Z,141.40
2018-02-08T21:26:50.122Z,148.35
2018-02-08T21:29:16.282Z,123.45
2018-02-08T21:31:42.449Z,134.43
2018-02-08T21:34:09.386Z,124.70
2018-02-08T21:36:35.552Z,123.28
2018-02-08T21:39:01.823Z,129.63
2018-02-08T21:41:27.999Z,119.32
2018-02-08T21:43:54.160Z,116.78
2018-02-08T21:46:21.050Z,127.07
2018-02-08T21:48:47.213Z,139.37
2018-02-08T21:51:13.436Z,123.78
2018-02-08T21:53:41.652Z,124.22
2018-02-08T21:56:09.693Z,130.52
2018-02-08T21:58:36.784Z,114.72
2018-02-08T22:01:03.079Z,128.43
2018-02-08T22:03:29.244Z,126.87
2018-02-08T22:05:56.148Z,116.05
2018-02-08T22:08:22.300Z,131.73
2018-02-08T22:10:48.537Z,113.03
2018-02-08T22:13:14.963Z,126.15
2018-02-08T22:15:41.107Z,128.80
2018-02-08T22:18:07.263Z,115.30
2018-02-08T22:20:33.417Z,122.90
2018-02-08T22:22:59.655Z,117.13
2018-02-08T22:25:26.553Z,129.95
2018-02-08T22:27:52.703Z,128.68
2018-02-08T22:30:18.851Z,122.85
2018-02-08T22:32:45.759Z,133.40
2018-02-08T22:35:11.931Z,132.65
2018-02-08T22:37:38.854Z,121.93
2018-02-08T22:40:05.019Z,125.70
2018-02-08T22:42:31.907Z,130.00
2018-02-08T22:44:58.059Z,126.70
2018-02-08T22:47:24.211Z,129.40
2018-02-08T22:49:50.375Z,136.52
2018-02-08T22:52:17.260Z,123.70
2018-02-08T22:54:43.432Z,139.52
2018-02-08T22:57:09.575Z,121.82
2018-02-08T22:59:35.721Z,126.12
2018-02-08T23:02:02.647Z,144.55
2018-02-08T23:04:28.783Z,122.20
2018-02-08T23:06:54.935Z,127.75
2018-02-08T23:09:21.838Z,123.28
2018-02-08T23:11:48.051Z,120.82
2018-02-08T23:14:14.424Z,121.10
2018-02-08T23:16:40.593Z,118.10
2018-02-08T23:19:06.728Z,130.45
2018-02-08T23:21:32.862Z,130.07
2018-02-08T23:23:59.766Z,117.10
2018-02-08T23:26:25.937Z,131.60
2018-02-08T23:28:52.088Z,120.97
2018-02-08T23:31:18.982Z,131.07
2018-02-08T23:33:45.114Z,141.85
2018-02-08T23:36:11.251Z,140.68
2018-02-08T23:38:37.406Z,135.60
2018-02-08T23:41:03.576Z,119.57
2018-02-08T23:43:29.751Z,133.35
2018-02-08T23:45:56.691Z,126.85
2018-02-08T23:48:22.869Z,123.00
2018-02-08T23:50:49.797Z,117.37
2018-02-08T23:53:15.975Z,129.23
2018-02-08T23:55:42.143Z,145.07
2018-02-08T23:58:08.332Z,128.57
